Time;durP1;ratioP1;P1;durP2;ratioP2;P2;SDS_P1;SDS_P2;PMS_P1;PMS_P2;Temp;Humidity;BMP_temperature;BMP_pressure;BME280_temperature;BME280_humidity;BME280_pressure;Samples;Min_cycle;Max_cycle;Signal;HPM_P1;HPM_P2
2024/03/13 00:02:15;;;;;;;5.77;5.20;;;;;;;;;;6164571;28;20320;-59
2024/03/13 00:05:19;;;;;;;9.93;5.63;;;;;;;;;;6164477;28;20300;-59
2024/03/13 00:08:28;;;;;;;6.40;4.87;;;;;;;;;;6164270;28;20292;-59
2024/03/13 00:11:32;;;;;;;6.03;4.73;;;;;;;;;;6147424;28;20305;-58
2024/03/13 00:14:37;;;;;;;9.77;5.20;;;;;;;;;;6140179;29;20304;-59
2024/03/13 00:17:44;;;;;;;9.00;5.50;;;;;;;;;;6139214;29;20316;-59
2024/03/13 00:20:49;;;;;;;8.93;5.63;;;;;;;;;;6140700;29;20296;-59
2024/03/13 00:23:52;;;;;;;9.77;5.47;;;;;;;;;;6140030;29;20297;-59
2024/03/13 00:26:57;;;;;;;5.57;5.07;;;;;;;;;;6140240;29;20296;-58
2024/03/13 00:30:02;;;;;;;9.87;5.60;;;;;;;;;;6140167;29;20299;-58
2024/03/13 00:33:08;;;;;;;10.77;5.10;;;;;;;;;;6140105;29;20302;-59
2024/03/13 00:36:12;;;;;;;9.70;5.47;;;;;;;;;;6140253;29;20294;-59
2024/03/13 00:39:16;;;;;;;13.50;5.30;;;;;;;;;;6140129;29;20296;-59
2024/03/13 00:42:19;;;;;;;7.13;5.77;;;;;;;;;;6161959;28;20611;-59
2024/03/13 00:45:23;;;;;;;7.57;5.70;;;;;;;;;;6163425;28;20480;-59
2024/03/13 00:48:31;;;;;;;9.70;5.33;;;;;;;;;;6161664;28;20298;-59
2024/03/13 00:51:35;;;;;;;11.00;5.97;;;;;;;;;;6163962;28;20298;-60
2024/03/13 00:54:45;;;;;;;11.73;6.47;;;;;;;;;;6163167;28;20299;-60
2024/03/13 00:57:49;;;;;;;13.27;6.37;;;;;;;;;;6163444;28;20296;-60
2024/03/13 01:00:53;;;;;;;10.20;5.87;;;;;;;;;;6162867;28;20295;-60
2024/03/13 01:03:59;;;;;;;9.27;6.47;;;;;;;;;;6162984;28;20316;-59
2024/03/13 01:07:04;;;;;;;10.93;6.40;;;;;;;;;;6163678;28;20298;-60
2024/03/13 01:10:09;;;;;;;11.23;7.23;;;;;;;;;;6154184;28;20298;-58
2024/03/13 01:13:13;;;;;;;12.50;6.53;;;;;;;;;;6115469;29;20297;-59
2024/03/13 01:16:18;;;;;;;13.23;7.00;;;;;;;;;;6115973;29;20299;-59
2024/03/13 01:19:24;;;;;;;21.23;8.33;;;;;;;;;;6114555;29;20302;-60
2024/03/13 01:22:28;;;;;;;14.97;7.97;;;;;;;;;;6115559;29;20293;-59
2024/03/13 01:25:32;;;;;;;12.97;7.40;;;;;;;;;;6115963;29;20297;-59
2024/03/13 01:28:37;;;;;;;10.63;7.37;;;;;;;;;;6114484;29;20303;-60
2024/03/13 01:31:41;;;;;;;17.50;7.33;;;;;;;;;;6115572;29;20309;-60
2024/03/13 01:34:47;;;;;;;13.00;6.97;;;;;;;;;;6115030;29;20445;-61
2024/03/13 01:37:58;;;;;;;9.13;6.97;;;;;;;;;;6114985;29;20472;-60
2024/03/13 01:58:19;;;;;;;14.70;7.03;;;;;;;;;;6092330;28;20303;-59
2024/03/13 02:04:48;;;;;;;13.80;7.10;;;;;;;;;;6160251;28;20299;-60
2024/03/13 02:07:54;;;;;;;15.13;6.87;;;;;;;;;;6161544;28;20296;-59
2024/03/13 02:10:58;;;;;;;13.67;7.07;;;;;;;;;;6149801;28;20557;-59
2024/03/13 02:14:04;;;;;;;12.63;6.73;;;;;;;;;;6137919;29;20297;-60
2024/03/13 02:17:08;;;;;;;16.07;7.27;;;;;;;;;;6138540;29;20297;-60
2024/03/13 02:20:15;;;;;;;11.80;7.80;;;;;;;;;;6137793;29;20297;-60
2024/03/13 02:23:22;;;;;;;11.57;6.60;;;;;;;;;;6137733;29;20318;-60
2024/03/13 02:26:27;;;;;;;12.97;7.10;;;;;;;;;;6121658;29;20294;-59
2024/03/13 02:29:31;;;;;;;12.33;6.97;;;;;;;;;;6121135;29;20456;-59
2024/03/13 02:32:35;;;;;;;15.53;7.63;;;;;;;;;;6121110;29;20601;-59
2024/03/13 02:35:40;;;;;;;13.73;7.00;;;;;;;;;;6121272;29;20308;-59
2024/03/13 02:38:46;;;;;;;8.40;6.80;;;;;;;;;;6120776;29;20295;-59
2024/03/13 02:41:50;;;;;;;13.03;7.50;;;;;;;;;;6139576;28;20299;-59
2024/03/13 02:44:54;;;;;;;13.00;7.30;;;;;;;;;;6144618;28;20488;-59
2024/03/13 02:47:59;;;;;;;13.17;7.00;;;;;;;;;;6144466;28;20626;-59
2024/03/13 02:51:03;;;;;;;11.57;7.27;;;;;;;;;;6144814;28;20569;-59
2024/03/13 02:54:08;;;;;;;15.97;7.60;;;;;;;;;;6144239;28;20317;-58
2024/03/13 02:57:14;;;;;;;11.97;7.13;;;;;;;;;;6144619;28;20469;-60
2024/03/13 03:00:19;;;;;;;11.50;6.73;;;;;;;;;;6144621;28;20481;-60
2024/03/13 03:03:23;;;;;;;13.27;7.77;;;;;;;;;;6144443;28;20293;-59
2024/03/13 03:06:26;;;;;;;9.63;7.20;;;;;;;;;;6144841;28;20297;-59
2024/03/13 03:09:30;;;;;;;13.53;7.90;;;;;;;;;;6143620;28;20295;-60
2024/03/13 03:12:34;;;;;;;19.47;7.70;;;;;;;;;;6120295;29;20298;-60
2024/03/13 03:15:38;;;;;;;11.80;7.80;;;;;;;;;;6120515;29;20304;-59
2024/03/13 03:18:43;;;;;;;16.60;7.50;;;;;;;;;;6120342;29;20297;-59
2024/03/13 03:21:47;;;;;;;9.83;7.20;;;;;;;;;;6120583;29;20296;-59
2024/03/13 03:24:51;;;;;;;18.70;8.30;;;;;;;;;;6122475;29;20300;-59
2024/03/13 03:27:57;;;;;;;18.47;8.50;;;;;;;;;;6124866;29;20461;-60
2024/03/13 03:31:04;;;;;;;14.00;8.00;;;;;;;;;;6125006;29;20300;-59
2024/03/13 03:34:09;;;;;;;14.97;8.47;;;;;;;;;;6124961;29;20308;-59
2024/03/13 03:37:15;;;;;;;16.17;8.33;;;;;;;;;;6124649;29;20303;-59
2024/03/13 03:40:19;;;;;;;15.60;8.27;;;;;;;;;;6130645;29;20287;-59
2024/03/13 03:43:23;;;;;;;16.53;8.73;;;;;;;;;;6147807;28;20297;-60
2024/03/13 03:46:27;;;;;;;18.63;8.43;;;;;;;;;;6148176;28;20299;-59
2024/03/13 03:49:31;;;;;;;14.20;8.03;;;;;;;;;;6147944;28;20480;-59
2024/03/13 03:52:35;;;;;;;11.37;7.90;;;;;;;;;;6147998;28;20594;-59
2024/03/13 03:55:39;;;;;;;16.13;8.73;;;;;;;;;;6147727;28;20303;-59
2024/03/13 03:58:44;;;;;;;14.70;8.80;;;;;;;;;;6148216;28;20390;-59
2024/03/13 04:01:49;;;;;;;13.80;8.67;;;;;;;;;;6134588;29;20301;-60
2024/03/13 04:04:53;;;;;;;11.70;8.13;;;;;;;;;;6129248;28;20482;-60
2024/03/13 04:07:58;;;;;;;15.10;8.10;;;;;;;;;;6135817;29;20296;-60
2024/03/13 04:11:02;;;;;;;11.50;8.40;;;;;;;;;;6126569;29;20425;-58
2024/03/13 04:14:06;;;;;;;13.23;7.60;;;;;;;;;;6147014;28;20288;-59
2024/03/13 04:17:10;;;;;;;11.20;7.33;;;;;;;;;;6147645;28;20297;-59
2024/03/13 04:20:18;;;;;;;10.90;7.20;;;;;;;;;;6138894;29;20289;-59
2024/03/13 04:23:23;;;;;;;10.73;7.83;;;;;;;;;;6123925;29;20294;-60
2024/03/13 04:26:27;;;;;;;11.77;7.57;;;;;;;;;;6122999;29;20292;-59
2024/03/13 04:29:31;;;;;;;14.17;7.97;;;;;;;;;;6123240;29;20615;-59
2024/03/13 04:32:47;;;;;;;12.73;7.83;;;;;;;;;;6125149;29;20303;-60
2024/03/13 04:35:51;;;;;;;13.17;8.00;;;;;;;;;;6122108;29;20306;-59
2024/03/13 04:38:54;;;;;;;19.20;8.50;;;;;;;;;;6143827;28;20320;-60
2024/03/13 04:41:58;;;;;;;16.27;8.80;;;;;;;;;;6128252;29;20298;-60
2024/03/13 04:45:02;;;;;;;17.60;8.67;;;;;;;;;;6122998;29;20297;-59
2024/03/13 04:48:06;;;;;;;14.80;8.00;;;;;;;;;;6123222;29;20297;-59
2024/03/13 04:51:11;;;;;;;16.87;9.00;;;;;;;;;;6122632;29;20295;-59
2024/03/13 04:54:16;;;;;;;11.97;6.90;;;;;;;;;;6122260;29;20322;-59
2024/03/13 04:57:19;;;;;;;13.37;8.40;;;;;;;;;;6122921;29;20297;-59
2024/03/13 05:00:24;;;;;;;15.17;7.93;;;;;;;;;;6122331;29;20297;-58
2024/03/13 05:03:28;;;;;;;14.00;8.10;;;;;;;;;;6122810;29;20297;-59
2024/03/13 05:06:32;;;;;;;11.97;8.10;;;;;;;;;;6122028;29;20446;-59
2024/03/13 05:09:36;;;;;;;15.70;8.70;;;;;;;;;;6121908;29;20297;-59
2024/03/13 05:12:40;;;;;;;11.43;8.20;;;;;;;;;;6140350;28;20302;-59
2024/03/13 05:15:45;;;;;;;17.55;10.45;;;;;;;;;;6144270;28;20788;-60
2024/03/13 05:18:49;;;;;;;11.77;8.50;;;;;;;;;;6161697;28;20302;-61
2024/03/13 05:21:53;;;;;;;14.23;7.33;;;;;;;;;;6146355;28;20305;-59
2024/03/13 05:24:58;;;;;;;12.33;7.57;;;;;;;;;;6145412;28;20308;-59
2024/03/13 05:28:02;;;;;;;13.43;7.57;;;;;;;;;;6146220;28;20299;-59
2024/03/13 05:31:09;;;;;;;12.63;7.13;;;;;;;;;;6145471;28;20296;-59
2024/03/13 05:34:13;;;;;;;10.00;7.63;;;;;;;;;;6145701;28;20596;-60
2024/03/13 05:37:17;;;;;;;12.70;7.37;;;;;;;;;;6145658;28;20297;-59
2024/03/13 05:40:21;;;;;;;13.30;7.90;;;;;;;;;;6139293;28;20540;-59
2024/03/13 05:43:26;;;;;;;12.97;7.40;;;;;;;;;;6122190;29;20303;-60
2024/03/13 05:46:30;;;;;;;11.10;7.47;;;;;;;;;;6121255;29;20302;-60
2024/03/13 05:49:34;;;;;;;15.00;7.27;;;;;;;;;;6103418;29;20306;-60
2024/03/13 05:52:37;;;;;;;14.67;7.53;;;;;;;;;;6098050;29;20296;-61
2024/03/13 05:55:42;;;;;;;15.80;7.27;;;;;;;;;;6097731;29;20314;-60
2024/03/13 05:58:46;;;;;;;18.10;7.70;;;;;;;;;;6097722;29;20302;-61
2024/03/13 06:01:50;;;;;;;14.47;7.77;;;;;;;;;;6098351;29;20297;-61
2024/03/13 06:05:02;;;;;;;11.40;7.40;;;;;;;;;;6097687;29;20295;-60
2024/03/13 06:08:06;;;;;;;14.17;8.47;;;;;;;;;;6113756;29;20295;-60
2024/03/13 06:11:10;;;;;;;11.63;7.83;;;;;;;;;;6109204;28;20299;-59
2024/03/13 06:14:14;;;;;;;14.10;8.23;;;;;;;;;;6144552;28;20358;-59
2024/03/13 06:17:18;;;;;;;17.07;8.13;;;;;;;;;;6145507;28;20598;-60
2024/03/13 06:20:22;;;;;;;16.40;8.50;;;;;;;;;;6145009;28;20293;-61
2024/03/13 06:23:27;;;;;;;16.80;8.70;;;;;;;;;;6145248;28;20596;-59
2024/03/13 06:26:31;;;;;;;14.40;8.50;;;;;;;;;;6144690;28;20494;-60
2024/03/13 06:32:57;;;;;;;11.43;7.83;;;;;;;;;;6147220;28;20306;-60
2024/03/13 06:36:01;;;;;;;14.80;8.80;;;;;;;;;;6144317;28;20307;-59
2024/03/13 06:39:06;;;;;;;15.10;8.60;;;;;;;;;;6144312;28;20308;-59
2024/03/13 06:42:12;;;;;;;14.70;8.87;;;;;;;;;;6128258;29;20302;-60
2024/03/13 06:45:16;;;;;;;18.10;9.20;;;;;;;;;;6096903;29;20293;-60
2024/03/13 06:48:30;;;;;;;15.10;8.37;;;;;;;;;;6098908;29;20475;-60
2024/03/13 06:51:35;;;;;;;12.63;8.23;;;;;;;;;;6097080;29;20304;-60
2024/03/13 06:54:38;;;;;;;17.33;8.90;;;;;;;;;;6097398;29;20303;-60
2024/03/13 06:57:42;;;;;;;19.60;8.60;;;;;;;;;;6097436;29;20410;-61
2024/03/13 07:00:46;;;;;;;12.30;8.30;;;;;;;;;;6101011;29;20301;-60
2024/03/13 07:03:52;;;;;;;16.80;8.73;;;;;;;;;;6101698;29;20327;-60
2024/03/13 07:06:59;;;;;;;17.33;8.37;;;;;;;;;;6132934;29;20301;-61
2024/03/13 07:10:03;;;;;;;18.30;9.13;;;;;;;;;;6101487;29;20296;-60
2024/03/13 07:13:06;;;;;;;11.87;8.73;;;;;;;;;;6146586;28;20299;-60
2024/03/13 07:16:13;;;;;;;18.03;8.80;;;;;;;;;;6148913;28;20304;-60
2024/03/13 07:19:18;;;;;;;14.07;8.73;;;;;;;;;;6148753;28;20311;-60
2024/03/13 07:22:22;;;;;;;12.90;7.93;;;;;;;;;;6149556;28;20297;-60
2024/03/13 07:25:25;;;;;;;15.07;9.20;;;;;;;;;;6148802;28;20295;-60
2024/03/13 07:28:32;;;;;;;20.17;9.70;;;;;;;;;;6148984;28;20375;-60
2024/03/13 07:31:39;;;;;;;16.50;8.93;;;;;;;;;;6148170;28;20589;-62
2024/03/13 07:34:44;;;;;;;15.37;8.67;;;;;;;;;;6148344;28;20306;-60
2024/03/13 07:37:48;;;;;;;15.47;8.23;;;;;;;;;;6148340;28;20296;-60
2024/03/13 07:40:52;;;;;;;18.07;8.63;;;;;;;;;;6129489;29;20310;-60
2024/03/13 07:43:56;;;;;;;16.30;9.17;;;;;;;;;;6100263;29;20310;-61
2024/03/13 07:47:00;;;;;;;14.07;8.20;;;;;;;;;;6101169;29;20298;-61
2024/03/13 07:50:04;;;;;;;17.63;8.97;;;;;;;;;;6100706;29;20293;-61
2024/03/13 07:53:08;;;;;;;13.13;7.90;;;;;;;;;;6101009;29;20446;-60
2024/03/13 07:56:12;;;;;;;17.27;10.48;;;;;;;;;;6099533;29;20453;-60
2024/03/13 07:59:16;;;;;;;13.83;9.03;;;;;;;;;;6100806;29;20318;-59
2024/03/13 08:02:20;;;;;;;17.40;8.43;;;;;;;;;;6100710;29;20295;-60
2024/03/13 08:05:24;;;;;;;14.53;8.63;;;;;;;;;;6100449;29;20290;-60
2024/03/13 08:08:28;;;;;;;14.13;8.10;;;;;;;;;;6100814;29;20303;-60
2024/03/13 08:11:49;;;;;;;16.40;8.43;;;;;;;;;;6124456;28;20293;-60
2024/03/13 08:15:10;;;;;;;12.87;8.40;;;;;;;;;;6149620;28;20298;-59
2024/03/13 08:18:31;;;;;;;14.37;8.40;;;;;;;;;;6150253;28;20318;-60
2024/03/13 08:21:52;;;;;;;12.27;8.50;;;;;;;;;;6149619;28;20294;-61
2024/03/13 08:25:16;;;;;;;12.63;8.20;;;;;;;;;;6149458;28;20301;-60
2024/03/13 08:28:37;;;;;;;14.33;8.13;;;;;;;;;;6149676;28;20490;-61
2024/03/13 08:31:58;;;;;;;15.87;7.40;;;;;;;;;;6149661;28;20289;-60
2024/03/13 08:35:21;;;;;;;17.27;7.93;;;;;;;;;;6149294;28;20291;-60
2024/03/13 08:38:42;;;;;;;12.80;7.60;;;;;;;;;;6136422;29;20306;-60
2024/03/13 08:42:03;;;;;;;15.63;7.20;;;;;;;;;;6128476;29;20306;-60
2024/03/13 08:45:26;;;;;;;13.57;7.03;;;;;;;;;;6101559;29;20303;-61
2024/03/13 08:48:47;;;;;;;10.07;6.47;;;;;;;;;;6114931;29;20306;-60
2024/03/13 08:52:08;;;;;;;11.33;6.70;;;;;;;;;;6102403;29;20307;-60
2024/03/13 08:55:34;;;;;;;10.93;6.87;;;;;;;;;;6114797;29;20291;-59
2024/03/13 08:58:55;;;;;;;14.60;7.00;;;;;;;;;;6101968;29;20311;-60
2024/03/13 09:02:17;;;;;;;15.60;6.83;;;;;;;;;;6101773;29;20298;-60
2024/03/13 09:05:39;;;;;;;13.97;6.70;;;;;;;;;;6101763;29;20464;-60
2024/03/13 09:08:59;;;;;;;13.33;6.47;;;;;;;;;;6127846;29;20331;-60
2024/03/13 09:12:05;;;;;;;12.07;6.67;;;;;;;;;;6125199;28;20320;-59
2024/03/13 09:15:09;;;;;;;14.97;7.30;;;;;;;;;;6146204;28;20302;-60
2024/03/13 09:18:15;;;;;;;10.23;6.50;;;;;;;;;;6146280;28;20309;-60
2024/03/13 09:21:19;;;;;;;13.03;6.40;;;;;;;;;;6144980;28;20297;-59
2024/03/13 09:24:23;;;;;;;12.23;6.40;;;;;;;;;;6145386;28;20294;-60
2024/03/13 09:27:26;;;;;;;14.23;7.27;;;;;;;;;;6146160;28;20302;-60
2024/03/13 09:30:30;;;;;;;14.57;6.73;;;;;;;;;;6145191;28;20313;-60
2024/03/13 09:33:34;;;;;;;14.43;5.97;;;;;;;;;;6145900;28;20301;-60
2024/03/13 09:36:38;;;;;;;7.83;5.90;;;;;;;;;;6144973;28;20325;-60
2024/03/13 09:39:42;;;;;;;12.93;6.20;;;;;;;;;;6144366;28;20488;-60
2024/03/13 09:42:46;;;;;;;15.90;6.57;;;;;;;;;;6122080;29;20295;-60
2024/03/13 09:45:50;;;;;;;10.33;5.70;;;;;;;;;;6121741;29;20587;-60
2024/03/13 09:48:56;;;;;;;10.63;5.60;;;;;;;;;;6121885;29;20519;-60
2024/03/13 09:52:00;;;;;;;14.47;5.73;;;;;;;;;;6122467;29;20526;-60
2024/03/13 09:55:04;;;;;;;11.60;6.40;;;;;;;;;;6121485;29;20318;-61
2024/03/13 09:58:08;;;;;;;14.23;6.00;;;;;;;;;;6122005;29;20309;-61
2024/03/13 10:01:13;;;;;;;8.93;5.47;;;;;;;;;;6121425;29;20291;-60
2024/03/13 10:04:24;;;;;;;17.07;5.70;;;;;;;;;;6121138;29;20578;-60
2024/03/13 10:07:28;;;;;;;9.82;6.55;;;;;;;;;;6122862;29;20306;-60
2024/03/13 10:10:34;;;;;;;7.10;5.70;;;;;;;;;;6122200;29;20306;-60
2024/03/13 10:13:43;;;;;;;15.90;6.72;;;;;;;;;;6144936;28;20298;-60
2024/03/13 10:16:47;;;;;;;10.50;5.80;;;;;;;;;;6144521;28;20294;-61
2024/03/13 10:19:53;;;;;;;14.03;6.10;;;;;;;;;;6144720;28;20306;-59
2024/03/13 10:22:57;;;;;;;14.37;6.67;;;;;;;;;;6145019;28;20294;-61
2024/03/13 10:26:01;;;;;;;11.57;6.37;;;;;;;;;;6144768;28;20302;-61
2024/03/13 10:29:08;;;;;;;10.67;6.27;;;;;;;;;;6144429;28;20305;-61
2024/03/13 10:32:12;;;;;;;18.93;6.47;;;;;;;;;;6145466;28;20290;-61
2024/03/13 10:35:16;;;;;;;12.93;5.93;;;;;;;;;;6144032;28;20283;-60
2024/03/13 10:38:20;;;;;;;17.00;6.63;;;;;;;;;;6145297;28;20314;-61
2024/03/13 10:41:24;;;;;;;12.13;6.60;;;;;;;;;;6122112;29;20295;-60
2024/03/13 10:44:28;;;;;;;17.87;6.93;;;;;;;;;;6097225;29;20302;-62
2024/03/13 10:47:32;;;;;;;10.00;5.47;;;;;;;;;;6097789;29;20488;-61
2024/03/13 10:50:36;;;;;;;7.23;5.70;;;;;;;;;;6097213;29;20307;-60
2024/03/13 10:53:40;;;;;;;11.00;6.10;;;;;;;;;;6098035;29;20307;-63
2024/03/13 10:56:50;;;;;;;9.83;6.00;;;;;;;;;;6097160;29;20299;-60
2024/03/13 10:59:54;;;;;;;44.07;9.43;;;;;;;;;;6097941;29;20299;-61
2024/03/13 11:02:58;;;;;;;26.07;6.07;;;;;;;;;;6113762;29;20298;-62
2024/03/13 11:06:03;;;;;;;18.25;6.20;;;;;;;;;;6097755;29;20119;-59
2024/03/13 11:09:12;;;;;;;16.90;6.40;;;;;;;;;;6112413;29;20298;-61
2024/03/13 11:12:19;;;;;;;7.23;5.57;;;;;;;;;;6127093;28;20294;-59
2024/03/13 11:15:24;;;;;;;11.20;5.43;;;;;;;;;;6144615;28;20297;-61
2024/03/13 11:18:28;;;;;;;12.13;5.60;;;;;;;;;;6144597;28;20570;-61
2024/03/13 11:21:32;;;;;;;15.00;5.30;;;;;;;;;;6144084;28;20306;-60
2024/03/13 11:24:36;;;;;;;11.53;5.27;;;;;;;;;;6143713;28;20295;-60
2024/03/13 11:27:41;;;;;;;8.87;4.80;;;;;;;;;;6144533;28;20297;-59
2024/03/13 11:30:45;;;;;;;17.67;5.57;;;;;;;;;;6143819;28;20314;-59
2024/03/13 11:33:52;;;;;;;10.00;5.23;;;;;;;;;;6143892;28;20294;-60
2024/03/13 11:36:56;;;;;;;6.88;4.63;;;;;;;;;;6144458;28;20306;-59
2024/03/13 11:40:00;;;;;;;9.27;5.20;;;;;;;;;;6140495;28;20299;-60
2024/03/13 11:43:04;;;;;;;9.98;5.65;;;;;;;;;;6120755;29;20295;-60
2024/03/13 11:46:14;;;;;;;16.87;5.50;;;;;;;;;;6123839;29;20302;-60
2024/03/13 11:49:19;;;;;;;9.47;5.40;;;;;;;;;;6124727;29;20294;-60
2024/03/13 11:52:24;;;;;;;10.93;5.03;;;;;;;;;;6110091;29;20475;-60
2024/03/13 11:55:27;;;;;;;20.53;4.93;;;;;;;;;;6124400;29;20303;-61
2024/03/13 11:58:32;;;;;;;7.77;5.00;;;;;;;;;;6125042;29;20298;-60
2024/03/13 12:01:36;;;;;;;12.60;5.00;;;;;;;;;;6124130;29;20299;-60
2024/03/13 12:04:43;;;;;;;10.47;5.00;;;;;;;;;;6123621;29;20302;-60
2024/03/13 12:07:48;;;;;;;11.23;4.88;;;;;;;;;;6124407;29;20295;-60
2024/03/13 12:10:53;;;;;;;8.57;4.90;;;;;;;;;;6127809;28;20302;-60
2024/03/13 12:13:57;;;;;;;10.40;4.95;;;;;;;;;;6147427;28;20302;-61
2024/03/13 12:17:01;;;;;;;13.88;4.53;;;;;;;;;;6148469;28;20294;-60
2024/03/13 12:20:11;;;;;;;7.13;5.03;;;;;;;;;;6147567;28;20464;-60
2024/03/13 12:23:17;;;;;;;17.73;5.17;;;;;;;;;;6148129;28;20286;-59
2024/03/13 12:26:24;;;;;;;10.03;4.97;;;;;;;;;;6147658;28;20305;-59
2024/03/13 12:29:29;;;;;;;15.13;5.35;;;;;;;;;;6147218;28;20302;-59
2024/03/13 12:32:34;;;;;;;15.52;5.30;;;;;;;;;;6147845;28;20302;-60
2024/03/13 12:35:38;;;;;;;12.85;5.32;;;;;;;;;;6147229;28;20314;-59
2024/03/13 12:38:42;;;;;;;16.10;4.57;;;;;;;;;;6147752;28;20293;-60
2024/03/13 12:41:46;;;;;;;12.43;4.93;;;;;;;;;;6129885;29;20468;-59
2024/03/13 12:44:50;;;;;;;10.68;4.75;;;;;;;;;;6123452;29;20322;-60
2024/03/13 12:47:54;;;;;;;13.52;4.57;;;;;;;;;;6123452;29;20291;-60
2024/03/13 12:50:58;;;;;;;7.72;5.13;;;;;;;;;;6123151;29;20299;-60
2024/03/13 12:54:07;;;;;;;10.17;4.60;;;;;;;;;;6123393;29;20371;-61
2024/03/13 12:57:11;;;;;;;12.95;5.30;;;;;;;;;;6122852;29;20475;-60
2024/03/13 13:00:15;;;;;;;8.68;4.88;;;;;;;;;;6123059;29;20615;-60
2024/03/13 13:03:20;;;;;;;12.15;5.25;;;;;;;;;;6123123;29;20295;-59
2024/03/13 13:06:24;;;;;;;11.73;4.47;;;;;;;;;;6122819;29;20299;-59
2024/03/13 13:09:29;;;;;;;9.52;4.75;;;;;;;;;;6122622;29;20540;-59
2024/03/13 13:12:33;;;;;;;9.35;4.80;;;;;;;;;;6124695;29;20298;-60
2024/03/13 13:15:37;;;;;;;12.13;4.80;;;;;;;;;;6146554;28;20457;-60
2024/03/13 13:18:42;;;;;;;11.48;4.57;;;;;;;;;;6147207;28;20302;-60
2024/03/13 13:21:46;;;;;;;10.73;4.50;;;;;;;;;;6146870;28;20303;-60
2024/03/13 13:24:51;;;;;;;19.38;5.47;;;;;;;;;;6131381;29;20257;-60
2024/03/13 13:27:57;;;;;;;7.97;4.47;;;;;;;;;;6146651;28;20606;-60
2024/03/13 13:31:01;;;;;;;8.23;4.43;;;;;;;;;;6146119;28;20295;-61
2024/03/13 13:34:06;;;;;;;10.32;4.43;;;;;;;;;;6145745;28;20294;-61
2024/03/13 13:37:10;;;;;;;16.10;4.47;;;;;;;;;;6145869;28;20595;-59
2024/03/13 13:40:15;;;;;;;9.23;4.27;;;;;;;;;;6140030;28;20296;-59
2024/03/13 13:43:21;;;;;;;11.52;4.40;;;;;;;;;;6122625;29;20559;-61
2024/03/13 13:46:25;;;;;;;10.30;4.05;;;;;;;;;;6122317;29;20299;-59
2024/03/13 13:49:29;;;;;;;8.10;4.57;;;;;;;;;;6122032;29;20299;-61
2024/03/13 13:52:33;;;;;;;9.00;4.13;;;;;;;;;;6122285;29;20302;-60
2024/03/13 13:55:37;;;;;;;8.13;4.47;;;;;;;;;;6120899;29;20295;-60
2024/03/13 13:58:42;;;;;;;11.07;4.37;;;;;;;;;;6121827;29;20303;-60
2024/03/13 14:01:48;;;;;;;6.18;4.40;;;;;;;;;;6121409;29;20306;-61
2024/03/13 14:04:53;;;;;;;5.65;4.53;;;;;;;;;;6121694;29;20456;-61
2024/03/13 14:07:56;;;;;;;13.60;4.38;;;;;;;;;;6121745;29;20448;-61
2024/03/13 14:11:01;;;;;;;13.82;5.07;;;;;;;;;;6125718;28;20322;-61
2024/03/13 14:14:05;;;;;;;7.97;4.23;;;;;;;;;;6145072;28;20302;-59
2024/03/13 14:17:10;;;;;;;7.57;4.80;;;;;;;;;;6145298;28;20303;-59
2024/03/13 14:20:18;;;;;;;12.95;4.30;;;;;;;;;;6144714;28;20294;-59
2024/03/13 14:23:22;;;;;;;11.90;4.38;;;;;;;;;;6145828;28;20294;-59
2024/03/13 14:26:26;;;;;;;14.80;4.63;;;;;;;;;;6144678;28;20301;-60
2024/03/13 14:29:30;;;;;;;12.10;4.67;;;;;;;;;;6144744;28;20290;-61
2024/03/13 14:32:34;;;;;;;21.70;4.20;;;;;;;;;;6144875;28;20307;-60
2024/03/13 14:35:38;;;;;;;10.75;3.88;;;;;;;;;;6144250;28;20327;-60
2024/03/13 14:38:44;;;;;;;9.38;4.22;;;;;;;;;;6145152;28;20322;-61
2024/03/13 14:41:48;;;;;;;8.82;4.38;;;;;;;;;;6126569;29;20300;-60
2024/03/13 14:44:52;;;;;;;15.52;4.50;;;;;;;;;;6120484;29;20294;-60
2024/03/13 14:47:56;;;;;;;8.57;4.40;;;;;;;;;;6120936;29;20299;-59
2024/03/13 14:51:00;;;;;;;10.13;4.18;;;;;;;;;;6120725;29;20481;-60
2024/03/13 14:54:05;;;;;;;14.20;4.23;;;;;;;;;;6120704;29;20294;-60
2024/03/13 14:57:09;;;;;;;9.87;4.27;;;;;;;;;;6121646;29;20295;-62
2024/03/13 15:00:14;;;;;;;13.83;4.83;;;;;;;;;;6121434;29;20298;-62
2024/03/13 15:03:18;;;;;;;10.17;5.07;;;;;;;;;;6120871;29;20292;-61
2024/03/13 15:06:23;;;;;;;10.17;4.47;;;;;;;;;;6121113;29;20330;-61
2024/03/13 15:09:27;;;;;;;9.73;3.85;;;;;;;;;;6121223;29;20287;-61
2024/03/13 15:12:32;;;;;;;9.90;4.37;;;;;;;;;;6137290;28;20243;-61
2024/03/13 15:15:36;;;;;;;9.70;5.00;;;;;;;;;;6144471;28;20381;-60
2024/03/13 15:18:41;;;;;;;8.50;4.20;;;;;;;;;;6145064;28;20310;-60
2024/03/13 15:21:45;;;;;;;10.37;5.07;;;;;;;;;;6149010;28;20317;-60
2024/03/13 15:24:50;;;;;;;5.77;4.40;;;;;;;;;;6149437;28;20298;-60
2024/03/13 15:27:54;;;;;;;16.35;4.15;;;;;;;;;;6149862;28;20286;-60
2024/03/13 15:30:57;;;;;;;12.10;5.17;;;;;;;;;;6148963;28;20306;-59
2024/03/13 15:34:01;;;;;;;6.20;4.43;;;;;;;;;;6148802;28;20294;-61
2024/03/13 15:37:05;;;;;;;10.15;4.22;;;;;;;;;;6149025;28;20309;-61
2024/03/13 15:40:12;;;;;;;12.33;4.43;;;;;;;;;;6143970;28;20294;-60
2024/03/13 15:43:19;;;;;;;12.17;4.57;;;;;;;;;;6125369;29;20473;-60
2024/03/13 15:46:23;;;;;;;4.35;3.95;;;;;;;;;;6124722;29;20291;-61
2024/03/13 15:49:27;;;;;;;6.57;4.63;;;;;;;;;;6124389;29;20291;-61
2024/03/13 15:52:31;;;;;;;13.30;4.50;;;;;;;;;;6125311;29;20575;-61
2024/03/13 15:55:35;;;;;;;9.80;4.45;;;;;;;;;;6124958;29;20623;-62
2024/03/13 15:58:39;;;;;;;9.95;4.65;;;;;;;;;;6124645;29;20291;-61
2024/03/13 16:01:43;;;;;;;12.17;5.00;;;;;;;;;;6123984;29;20300;-60
2024/03/13 16:04:47;;;;;;;12.55;4.75;;;;;;;;;;6123803;29;20303;-60
2024/03/13 16:07:52;;;;;;;11.90;5.22;;;;;;;;;;6124549;29;20350;-60
2024/03/13 16:10:58;;;;;;;12.38;4.53;;;;;;;;;;6128398;28;20338;-61
2024/03/13 16:14:02;;;;;;;10.82;4.75;;;;;;;;;;6147361;28;20293;-61
2024/03/13 16:17:06;;;;;;;9.70;4.50;;;;;;;;;;6147971;28;20298;-61
2024/03/13 16:20:10;;;;;;;14.10;4.67;;;;;;;;;;6147535;28;20290;-61
2024/03/13 16:23:17;;;;;;;10.13;4.97;;;;;;;;;;6148387;28;20294;-60
2024/03/13 16:26:21;;;;;;;16.47;4.60;;;;;;;;;;6147389;28;20444;-60
2024/03/13 16:29:26;;;;;;;16.87;5.13;;;;;;;;;;6147520;28;20299;-61
2024/03/13 16:32:30;;;;;;;11.70;5.60;;;;;;;;;;6147502;28;20301;-60
2024/03/13 16:35:33;;;;;;;9.40;5.00;;;;;;;;;;6162634;28;20314;-60
2024/03/13 16:38:37;;;;;;;17.73;5.33;;;;;;;;;;6147528;28;20310;-61
2024/03/13 16:41:42;;;;;;;13.33;5.23;;;;;;;;;;6130223;29;20574;-61
2024/03/13 16:44:46;;;;;;;13.63;4.67;;;;;;;;;;6123169;29;20312;-61
2024/03/13 16:47:51;;;;;;;10.50;5.60;;;;;;;;;;6123608;29;20303;-60
2024/03/13 16:50:55;;;;;;;9.93;4.93;;;;;;;;;;6122739;29;20297;-60
2024/03/13 16:53:59;;;;;;;9.87;5.13;;;;;;;;;;6123262;29;20305;-60
2024/03/13 16:57:03;;;;;;;10.53;5.33;;;;;;;;;;6123500;29;20481;-60
2024/03/13 17:00:14;;;;;;;11.10;5.50;;;;;;;;;;6123179;29;20601;-61
2024/03/13 17:03:20;;;;;;;9.80;5.47;;;;;;;;;;6124818;29;20302;-61
2024/03/13 17:06:25;;;;;;;12.50;5.43;;;;;;;;;;6122829;29;20290;-61
2024/03/13 17:09:29;;;;;;;13.37;5.57;;;;;;;;;;6122898;29;20297;-60
2024/03/13 17:12:34;;;;;;;8.77;5.00;;;;;;;;;;6139619;28;20313;-60
2024/03/13 17:15:38;;;;;;;18.40;5.50;;;;;;;;;;6146026;28;20450;-60
2024/03/13 17:18:42;;;;;;;9.33;5.27;;;;;;;;;;6146502;29;20297;-60
2024/03/13 17:21:47;;;;;;;5.83;5.20;;;;;;;;;;6146375;28;20290;-60
2024/03/13 17:24:51;;;;;;;10.93;5.97;;;;;;;;;;6141774;28;20305;-60
2024/03/13 17:27:55;;;;;;;9.30;5.90;;;;;;;;;;6146530;28;20586;-60
2024/03/13 17:30:59;;;;;;;10.70;5.50;;;;;;;;;;6145757;28;20298;-61
2024/03/13 17:34:04;;;;;;;11.47;5.07;;;;;;;;;;6145199;28;20464;-61
2024/03/13 17:37:08;;;;;;;18.50;6.07;;;;;;;;;;6146306;28;20298;-60
2024/03/13 17:40:12;;;;;;;20.33;6.07;;;;;;;;;;6141342;28;20302;-61
2024/03/13 17:43:19;;;;;;;;;;;;;;;;;;6121564;29;20486;-61
2024/03/13 17:46:23;;;;;;;10.68;5.85;;;;;;;;;;6137206;29;19990;-61
2024/03/13 17:49:28;;;;;;;9.03;5.70;;;;;;;;;;6121936;29;20298;-61
2024/03/13 17:52:32;;;;;;;13.03;5.93;;;;;;;;;;6122118;29;20307;-60
2024/03/13 17:55:36;;;;;;;10.57;5.90;;;;;;;;;;6120012;29;20298;-59
2024/03/13 17:58:40;;;;;;;9.80;5.87;;;;;;;;;;6098296;29;20361;-60
2024/03/13 18:01:44;;;;;;;9.00;5.73;;;;;;;;;;6097746;29;20296;-60
2024/03/13 18:04:48;;;;;;;13.07;6.03;;;;;;;;;;6098265;29;20615;-64
2024/03/13 18:07:52;;;;;;;10.20;5.97;;;;;;;;;;6098469;29;20608;-60
2024/03/13 18:10:56;;;;;;;10.37;5.60;;;;;;;;;;6105763;28;20305;-60
2024/03/13 18:14:00;;;;;;;12.90;5.70;;;;;;;;;;6144816;28;20290;-60
2024/03/13 18:17:04;;;;;;;12.30;5.30;;;;;;;;;;6145242;28;20289;-59
2024/03/13 18:20:09;;;;;;;11.50;5.73;;;;;;;;;;6144623;28;20472;-59
2024/03/13 18:23:13;;;;;;;7.33;5.80;;;;;;;;;;6144869;28;20297;-59
2024/03/13 18:26:17;;;;;;;7.13;5.33;;;;;;;;;;6144302;28;20306;-59
2024/03/13 18:29:21;;;;;;;6.00;5.30;;;;;;;;;;6144791;28;20294;-60
2024/03/13 18:32:25;;;;;;;5.43;5.03;;;;;;;;;;6144706;28;20297;-60
2024/03/13 18:35:28;;;;;;;8.47;5.37;;;;;;;;;;6144258;28;20445;-60
2024/03/13 18:38:32;;;;;;;9.00;5.20;;;;;;;;;;6144812;28;20300;-60
2024/03/13 18:41:39;;;;;;;8.00;5.20;;;;;;;;;;6120344;29;20299;-61
2024/03/13 18:44:44;;;;;;;8.63;4.80;;;;;;;;;;6097435;29;20292;-60